sensor_id;sensor_type;location;lat;lon;timestamp;P1;durP1;ratioP1;P2;durP2;ratioP2
11046;SDS011;5576;50.008;10.596;2022-07-17T00:01:04;2.00;;;1.20;;
11046;SDS011;5576;50.008;10.596;2022-07-17T00:03:30;1.92;;;1.17;;
11046;SDS011;5576;50.008;10.596;2022-07-17T00:05:56;2.03;;;1.20;;
11046;SDS011;5576;50.008;10.596;2022-07-17T00:08:21;2.90;;;1.30;;
11046;SDS011;5576;50.008;10.596;2022-07-17T00:10:47;1.87;;;1.10;;
11046;SDS011;5576;50.008;10.596;2022-07-17T00:13:13;1.52;;;1.02;;
11046;SDS011;5576;50.008;10.596;2022-07-17T00:15:39;1.53;;;0.97;;
11046;SDS011;5576;50.008;10.596;2022-07-17T00:18:05;3.38;;;1.10;;
11046;SDS011;5576;50.008;10.596;2022-07-17T00:20:32;1.80;;;1.00;;
11046;SDS011;5576;50.008;10.596;2022-07-17T00:22:58;1.38;;;1.00;;
11046;SDS011;5576;50.008;10.596;2022-07-17T00:25:24;2.00;;;1.00;;
11046;SDS011;5576;50.008;10.596;2022-07-17T00:27:51;1.27;;;0.90;;
11046;SDS011;5576;50.008;10.596;2022-07-17T00:30:16;1.02;;;0.90;;
11046;SDS011;5576;50.008;10.596;2022-07-17T00:32:43;1.50;;;1.00;;
11046;SDS011;5576;50.008;10.596;2022-07-17T00:35:09;1.25;;;1.00;;
11046;SDS011;5576;50.008;10.596;2022-07-17T00:37:44;2.33;;;1.10;;
11046;SDS011;5576;50.008;10.596;2022-07-17T00:40:12;1.47;;;1.03;;
11046;SDS011;5576;50.008;10.596;2022-07-17T00:42:41;2.45;;;1.00;;
11046;SDS011;5576;50.008;10.596;2022-07-17T00:45:08;2.20;;;1.00;;
11046;SDS011;5576;50.008;10.596;2022-07-17T00:50:24;1.90;;;1.00;;
11046;SDS011;5576;50.008;10.596;2022-07-17T00:52:52;1.50;;;1.02;;
11046;SDS011;5576;50.008;10.596;2022-07-17T00:55:18;1.60;;;0.98;;
11046;SDS011;5576;50.008;10.596;2022-07-17T00:57:45;1.55;;;0.90;;
11046;SDS011;5576;50.008;10.596;2022-07-17T01:00:12;2.00;;;0.90;;
11046;SDS011;5576;50.008;10.596;2022-07-17T01:02:39;1.30;;;0.95;;
11046;SDS011;5576;50.008;10.596;2022-07-17T01:05:05;1.73;;;1.00;;
11046;SDS011;5576;50.008;10.596;2022-07-17T01:07:31;1.10;;;1.00;;
11046;SDS011;5576;50.008;10.596;2022-07-17T01:09:57;1.57;;;1.00;;
11046;SDS011;5576;50.008;10.596;2022-07-17T01:12:23;2.03;;;1.20;;
11046;SDS011;5576;50.008;10.596;2022-07-17T01:14:50;1.45;;;1.00;;
11046;SDS011;5576;50.008;10.596;2022-07-17T01:17:17;1.45;;;0.98;;
11046;SDS011;5576;50.008;10.596;2022-07-17T01:22:21;2.00;;;1.00;;
11046;SDS011;5576;50.008;10.596;2022-07-17T01:24:47;2.70;;;1.13;;
11046;SDS011;5576;50.008;10.596;2022-07-17T01:27:14;1.50;;;1.00;;
11046;SDS011;5576;50.008;10.596;2022-07-17T01:29:41;1.20;;;1.00;;
11046;SDS011;5576;50.008;10.596;2022-07-17T01:32:07;2.45;;;1.00;;
11046;SDS011;5576;50.008;10.596;2022-07-17T01:34:33;2.03;;;1.10;;
11046;SDS011;5576;50.008;10.596;2022-07-17T01:36:59;1.40;;;1.00;;
11046;SDS011;5576;50.008;10.596;2022-07-17T01:39:25;1.83;;;1.17;;
11046;SDS011;5576;50.008;10.596;2022-07-17T01:42:11;2.42;;;1.00;;
11046;SDS011;5576;50.008;10.596;2022-07-17T01:44:37;2.60;;;1.10;;
11046;SDS011;5576;50.008;10.596;2022-07-17T01:47:04;1.73;;;0.90;;
11046;SDS011;5576;50.008;10.596;2022-07-17T01:49:30;1.10;;;0.90;;
11046;SDS011;5576;50.008;10.596;2022-07-17T01:51:56;1.83;;;1.10;;
11046;SDS011;5576;50.008;10.596;2022-07-17T01:54:26;1.95;;;1.00;;
11046;SDS011;5576;50.008;10.596;2022-07-17T01:56:52;1.88;;;1.08;;
11046;SDS011;5576;50.008;10.596;2022-07-17T01:59:18;1.23;;;0.90;;
11046;SDS011;5576;50.008;10.596;2022-07-17T02:01:44;1.90;;;1.00;;
11046;SDS011;5576;50.008;10.596;2022-07-17T02:04:10;1.38;;;1.05;;
11046;SDS011;5576;50.008;10.596;2022-07-17T02:06:36;2.63;;;1.20;;
11046;SDS011;5576;50.008;10.596;2022-07-17T02:09:02;1.55;;;1.08;;
11046;SDS011;5576;50.008;10.596;2022-07-17T02:11:29;3.30;;;1.05;;
11046;SDS011;5576;50.008;10.596;2022-07-17T02:13:55;1.40;;;1.00;;
11046;SDS011;5576;50.008;10.596;2022-07-17T02:16:21;2.00;;;1.00;;
11046;SDS011;5576;50.008;10.596;2022-07-17T02:18:47;1.20;;;0.90;;
11046;SDS011;5576;50.008;10.596;2022-07-17T02:21:13;1.92;;;1.20;;
11046;SDS011;5576;50.008;10.596;2022-07-17T02:23:39;2.10;;;1.05;;
11046;SDS011;5576;50.008;10.596;2022-07-17T02:26:05;1.80;;;1.10;;
11046;SDS011;5576;50.008;10.596;2022-07-17T02:28:32;1.30;;;0.80;;
11046;SDS011;5576;50.008;10.596;2022-07-17T02:30:58;2.07;;;1.00;;
11046;SDS011;5576;50.008;10.596;2022-07-17T02:33:24;1.37;;;1.10;;
11046;SDS011;5576;50.008;10.596;2022-07-17T02:35:50;1.02;;;0.90;;
11046;SDS011;5576;50.008;10.596;2022-07-17T02:38:16;1.85;;;0.95;;
11046;SDS011;5576;50.008;10.596;2022-07-17T02:40:42;1.20;;;0.90;;
11046;SDS011;5576;50.008;10.596;2022-07-17T02:43:09;2.10;;;0.90;;
11046;SDS011;5576;50.008;10.596;2022-07-17T02:45:35;1.80;;;0.90;;
11046;SDS011;5576;50.008;10.596;2022-07-17T02:48:01;1.70;;;1.08;;
11046;SDS011;5576;50.008;10.596;2022-07-17T02:50:27;2.22;;;1.10;;
11046;SDS011;5576;50.008;10.596;2022-07-17T02:52:53;1.65;;;1.08;;
11046;SDS011;5576;50.008;10.596;2022-07-17T02:55:19;1.65;;;1.10;;
11046;SDS011;5576;50.008;10.596;2022-07-17T02:57:46;2.78;;;1.00;;
11046;SDS011;5576;50.008;10.596;2022-07-17T03:00:13;2.42;;;1.00;;
11046;SDS011;5576;50.008;10.596;2022-07-17T03:02:41;1.97;;;1.10;;
11046;SDS011;5576;50.008;10.596;2022-07-17T03:05:07;1.20;;;0.90;;
11046;SDS011;5576;50.008;10.596;2022-07-17T03:07:33;0.90;;;0.80;;
11046;SDS011;5576;50.008;10.596;2022-07-17T03:09:59;2.40;;;1.20;;
11046;SDS011;5576;50.008;10.596;2022-07-17T03:12:26;1.35;;;0.98;;
11046;SDS011;5576;50.008;10.596;2022-07-17T03:14:53;1.88;;;0.93;;
11046;SDS011;5576;50.008;10.596;2022-07-17T03:17:19;1.80;;;1.08;;
11046;SDS011;5576;50.008;10.596;2022-07-17T03:19:45;1.27;;;1.00;;
11046;SDS011;5576;50.008;10.596;2022-07-17T03:22:11;1.35;;;1.00;;
11046;SDS011;5576;50.008;10.596;2022-07-17T03:24:37;2.20;;;1.20;;
11046;SDS011;5576;50.008;10.596;2022-07-17T03:27:03;1.77;;;1.00;;
11046;SDS011;5576;50.008;10.596;2022-07-17T03:29:29;2.28;;;1.10;;
11046;SDS011;5576;50.008;10.596;2022-07-17T03:31:55;1.52;;;0.93;;
11046;SDS011;5576;50.008;10.596;2022-07-17T03:34:22;1.80;;;1.02;;
11046;SDS011;5576;50.008;10.596;2022-07-17T03:36:48;2.42;;;1.10;;
11046;SDS011;5576;50.008;10.596;2022-07-17T03:39:14;1.48;;;1.10;;
11046;SDS011;5576;50.008;10.596;2022-07-17T03:41:40;2.10;;;1.08;;
11046;SDS011;5576;50.008;10.596;2022-07-17T03:44:07;1.10;;;1.00;;
11046;SDS011;5576;50.008;10.596;2022-07-17T03:46:33;1.80;;;1.20;;
11046;SDS011;5576;50.008;10.596;2022-07-17T03:49:00;1.75;;;1.00;;
11046;SDS011;5576;50.008;10.596;2022-07-17T03:51:26;1.95;;;1.10;;
11046;SDS011;5576;50.008;10.596;2022-07-17T03:53:52;1.90;;;1.10;;
11046;SDS011;5576;50.008;10.596;2022-07-17T03:56:18;1.13;;;1.00;;
11046;SDS011;5576;50.008;10.596;2022-07-17T03:58:45;2.67;;;1.10;;
11046;SDS011;5576;50.008;10.596;2022-07-17T04:01:11;2.40;;;1.00;;
11046;SDS011;5576;50.008;10.596;2022-07-17T04:03:37;1.52;;;1.00;;
11046;SDS011;5576;50.008;10.596;2022-07-17T04:06:03;1.58;;;1.00;;
11046;SDS011;5576;50.008;10.596;2022-07-17T04:08:29;2.03;;;1.10;;
11046;SDS011;5576;50.008;10.596;2022-07-17T04:10:56;2.07;;;1.30;;
11046;SDS011;5576;50.008;10.596;2022-07-17T04:13:22;1.90;;;1.20;;
11046;SDS011;5576;50.008;10.596;2022-07-17T04:15:48;1.27;;;1.03;;
11046;SDS011;5576;50.008;10.596;2022-07-17T04:18:15;2.10;;;1.07;;
11046;SDS011;5576;50.008;10.596;2022-07-17T04:20:41;2.38;;;1.20;;
11046;SDS011;5576;50.008;10.596;2022-07-17T04:23:07;1.80;;;1.00;;
11046;SDS011;5576;50.008;10.596;2022-07-17T04:25:34;1.92;;;1.10;;
11046;SDS011;5576;50.008;10.596;2022-07-17T04:28:00;1.65;;;1.02;;
11046;SDS011;5576;50.008;10.596;2022-07-17T04:30:26;2.77;;;1.10;;
11046;SDS011;5576;50.008;10.596;2022-07-17T04:32:52;3.10;;;1.10;;
11046;SDS011;5576;50.008;10.596;2022-07-17T04:35:18;2.10;;;1.20;;
11046;SDS011;5576;50.008;10.596;2022-07-17T04:37:45;1.13;;;1.00;;
11046;SDS011;5576;50.008;10.596;2022-07-17T04:40:11;2.23;;;1.10;;
11046;SDS011;5576;50.008;10.596;2022-07-17T04:42:37;2.53;;;1.00;;
11046;SDS011;5576;50.008;10.596;2022-07-17T04:45:04;1.70;;;1.02;;
11046;SDS011;5576;50.008;10.596;2022-07-17T04:47:30;3.15;;;1.00;;
11046;SDS011;5576;50.008;10.596;2022-07-17T04:49:56;2.80;;;1.00;;
11046;SDS011;5576;50.008;10.596;2022-07-17T04:52:23;1.50;;;1.10;;
11046;SDS011;5576;50.008;10.596;2022-07-17T04:54:49;1.67;;;1.20;;
11046;SDS011;5576;50.008;10.596;2022-07-17T04:57:15;2.60;;;1.00;;
11046;SDS011;5576;50.008;10.596;2022-07-17T04:59:41;1.83;;;1.00;;
11046;SDS011;5576;50.008;10.596;2022-07-17T05:02:07;1.95;;;1.10;;
11046;SDS011;5576;50.008;10.596;2022-07-17T05:04:33;1.30;;;1.10;;
11046;SDS011;5576;50.008;10.596;2022-07-17T05:06:59;2.50;;;1.10;;
11046;SDS011;5576;50.008;10.596;2022-07-17T05:09:26;1.27;;;1.00;;
11046;SDS011;5576;50.008;10.596;2022-07-17T05:11:52;1.40;;;1.00;;
11046;SDS011;5576;50.008;10.596;2022-07-17T05:14:18;2.15;;;1.10;;
11046;SDS011;5576;50.008;10.596;2022-07-17T05:16:44;1.88;;;1.10;;
11046;SDS011;5576;50.008;10.596;2022-07-17T05:19:10;2.50;;;1.10;;
11046;SDS011;5576;50.008;10.596;2022-07-17T05:21:36;2.08;;;1.17;;
11046;SDS011;5576;50.008;10.596;2022-07-17T05:24:03;2.42;;;1.08;;
11046;SDS011;5576;50.008;10.596;2022-07-17T05:26:29;2.97;;;1.30;;
11046;SDS011;5576;50.008;10.596;2022-07-17T05:28:55;2.05;;;1.25;;
11046;SDS011;5576;50.008;10.596;2022-07-17T05:31:21;2.00;;;1.40;;
11046;SDS011;5576;50.008;10.596;2022-07-17T05:33:47;2.22;;;1.30;;
11046;SDS011;5576;50.008;10.596;2022-07-17T05:36:13;1.92;;;1.27;;
11046;SDS011;5576;50.008;10.596;2022-07-17T05:38:39;3.08;;;1.40;;
11046;SDS011;5576;50.008;10.596;2022-07-17T05:41:06;2.40;;;1.30;;
11046;SDS011;5576;50.008;10.596;2022-07-17T05:43:32;2.72;;;1.40;;
11046;SDS011;5576;50.008;10.596;2022-07-17T05:45:58;2.33;;;1.38;;
11046;SDS011;5576;50.008;10.596;2022-07-17T05:48:24;3.10;;;1.42;;
11046;SDS011;5576;50.008;10.596;2022-07-17T05:50:51;1.87;;;1.30;;
11046;SDS011;5576;50.008;10.596;2022-07-17T05:53:17;2.40;;;1.33;;
11046;SDS011;5576;50.008;10.596;2022-07-17T05:55:43;2.95;;;1.38;;
11046;SDS011;5576;50.008;10.596;2022-07-17T05:58:10;1.92;;;1.40;;
11046;SDS011;5576;50.008;10.596;2022-07-17T06:00:36;2.33;;;1.30;;
11046;SDS011;5576;50.008;10.596;2022-07-17T06:03:03;3.55;;;1.40;;
11046;SDS011;5576;50.008;10.596;2022-07-17T06:05:29;2.23;;;1.40;;
11046;SDS011;5576;50.008;10.596;2022-07-17T06:07:55;2.73;;;1.20;;
11046;SDS011;5576;50.008;10.596;2022-07-17T06:10:22;2.55;;;1.40;;
11046;SDS011;5576;50.008;10.596;2022-07-17T06:12:49;2.20;;;1.40;;
11046;SDS011;5576;50.008;10.596;2022-07-17T06:15:17;2.50;;;1.35;;
11046;SDS011;5576;50.008;10.596;2022-07-17T06:17:43;2.60;;;1.35;;
11046;SDS011;5576;50.008;10.596;2022-07-17T06:20:09;2.58;;;1.20;;
11046;SDS011;5576;50.008;10.596;2022-07-17T06:22:36;4.25;;;1.70;;
11046;SDS011;5576;50.008;10.596;2022-07-17T06:25:02;2.55;;;1.60;;
11046;SDS011;5576;50.008;10.596;2022-07-17T06:27:28;2.33;;;1.20;;
11046;SDS011;5576;50.008;10.596;2022-07-17T06:29:55;2.58;;;1.48;;
11046;SDS011;5576;50.008;10.596;2022-07-17T06:32:21;2.25;;;1.30;;
11046;SDS011;5576;50.008;10.596;2022-07-17T06:34:47;2.22;;;1.35;;
11046;SDS011;5576;50.008;10.596;2022-07-17T06:37:13;2.85;;;1.23;;
11046;SDS011;5576;50.008;10.596;2022-07-17T06:39:39;2.40;;;1.30;;
11046;SDS011;5576;50.008;10.596;2022-07-17T06:42:05;1.98;;;1.20;;
11046;SDS011;5576;50.008;10.596;2022-07-17T06:44:31;2.10;;;1.30;;
11046;SDS011;5576;50.008;10.596;2022-07-17T06:46:59;2.40;;;1.20;;
11046;SDS011;5576;50.008;10.596;2022-07-17T06:49:25;2.45;;;1.20;;
11046;SDS011;5576;50.008;10.596;2022-07-17T06:51:51;2.08;;;1.40;;
11046;SDS011;5576;50.008;10.596;2022-07-17T06:54:17;2.85;;;1.40;;
11046;SDS011;5576;50.008;10.596;2022-07-17T06:56:44;2.45;;;1.20;;
11046;SDS011;5576;50.008;10.596;2022-07-17T06:59:09;1.70;;;1.30;;
11046;SDS011;5576;50.008;10.596;2022-07-17T07:01:36;2.10;;;1.30;;
11046;SDS011;5576;50.008;10.596;2022-07-17T07:04:03;1.23;;;1.10;;
11046;SDS011;5576;50.008;10.596;2022-07-17T07:06:30;2.70;;;1.20;;
11046;SDS011;5576;50.008;10.596;2022-07-17T07:08:55;2.30;;;1.50;;
11046;SDS011;5576;50.008;10.596;2022-07-17T07:11:22;3.47;;;1.27;;
11046;SDS011;5576;50.008;10.596;2022-07-17T07:13:49;1.63;;;1.10;;
11046;SDS011;5576;50.008;10.596;2022-07-17T07:16:14;2.93;;;1.17;;
11046;SDS011;5576;50.008;10.596;2022-07-17T07:18:41;1.90;;;1.20;;
11046;SDS011;5576;50.008;10.596;2022-07-17T07:21:07;1.75;;;1.20;;
11046;SDS011;5576;50.008;10.596;2022-07-17T07:23:33;2.55;;;1.13;;
11046;SDS011;5576;50.008;10.596;2022-07-17T07:25:59;5.05;;;1.30;;
11046;SDS011;5576;50.008;10.596;2022-07-17T07:28:25;2.15;;;1.10;;
11046;SDS011;5576;50.008;10.596;2022-07-17T07:30:51;2.27;;;1.13;;
11046;SDS011;5576;50.008;10.596;2022-07-17T07:33:16;2.92;;;1.15;;
11046;SDS011;5576;50.008;10.596;2022-07-17T07:35:42;3.33;;;1.40;;
11046;SDS011;5576;50.008;10.596;2022-07-17T07:38:08;2.22;;;1.10;;
11046;SDS011;5576;50.008;10.596;2022-07-17T07:40:35;2.58;;;1.45;;
11046;SDS011;5576;50.008;10.596;2022-07-17T07:43:01;2.80;;;1.20;;
11046;SDS011;5576;50.008;10.596;2022-07-17T07:45:27;2.90;;;0.90;;
11046;SDS011;5576;50.008;10.596;2022-07-17T07:47:53;1.60;;;0.90;;
11046;SDS011;5576;50.008;10.596;2022-07-17T07:50:21;1.83;;;0.90;;
11046;SDS011;5576;50.008;10.596;2022-07-17T07:52:49;1.73;;;0.90;;
11046;SDS011;5576;50.008;10.596;2022-07-17T07:55:15;1.42;;;0.98;;
11046;SDS011;5576;50.008;10.596;2022-07-17T07:57:41;5.03;;;1.20;;
11046;SDS011;5576;50.008;10.596;2022-07-17T08:00:08;2.03;;;1.10;;
11046;SDS011;5576;50.008;10.596;2022-07-17T08:02:39;1.98;;;1.00;;
11046;SDS011;5576;50.008;10.596;2022-07-17T08:05:05;1.73;;;0.90;;
11046;SDS011;5576;50.008;10.596;2022-07-17T08:07:31;1.58;;;1.00;;
11046;SDS011;5576;50.008;10.596;2022-07-17T08:09:57;1.88;;;1.00;;
11046;SDS011;5576;50.008;10.596;2022-07-17T08:12:23;2.38;;;1.00;;
11046;SDS011;5576;50.008;10.596;2022-07-17T08:14:50;2.40;;;1.00;;
11046;SDS011;5576;50.008;10.596;2022-07-17T08:17:16;1.55;;;0.93;;
11046;SDS011;5576;50.008;10.596;2022-07-17T08:19:42;2.88;;;0.85;;
11046;SDS011;5576;50.008;10.596;2022-07-17T08:22:08;2.15;;;1.00;;
11046;SDS011;5576;50.008;10.596;2022-07-17T08:24:34;2.47;;;0.90;;
11046;SDS011;5576;50.008;10.596;2022-07-17T08:26:59;1.75;;;0.90;;
11046;SDS011;5576;50.008;10.596;2022-07-17T08:29:25;1.37;;;0.80;;
11046;SDS011;5576;50.008;10.596;2022-07-17T08:31:51;0.93;;;0.80;;
11046;SDS011;5576;50.008;10.596;2022-07-17T08:34:18;1.83;;;0.70;;
11046;SDS011;5576;50.008;10.596;2022-07-17T08:36:44;1.83;;;0.93;;
11046;SDS011;5576;50.008;10.596;2022-07-17T08:39:10;1.58;;;0.90;;
11046;SDS011;5576;50.008;10.596;2022-07-17T08:41:37;1.93;;;0.90;;
11046;SDS011;5576;50.008;10.596;2022-07-17T08:44:04;2.20;;;0.90;;
11046;SDS011;5576;50.008;10.596;2022-07-17T08:46:30;1.65;;;0.70;;
11046;SDS011;5576;50.008;10.596;2022-07-17T08:49:01;1.60;;;0.70;;
11046;SDS011;5576;50.008;10.596;2022-07-17T08:51:27;1.80;;;0.90;;
11046;SDS011;5576;50.008;10.596;2022-07-17T08:53:54;1.75;;;0.80;;
11046;SDS011;5576;50.008;10.596;2022-07-17T08:56:20;1.92;;;0.90;;
11046;SDS011;5576;50.008;10.596;2022-07-17T08:58:46;2.90;;;1.00;;
11046;SDS011;5576;50.008;10.596;2022-07-17T09:01:13;2.35;;;0.88;;
11046;SDS011;5576;50.008;10.596;2022-07-17T09:03:40;1.30;;;0.63;;
11046;SDS011;5576;50.008;10.596;2022-07-17T09:06:22;1.53;;;0.87;;
11046;SDS011;5576;50.008;10.596;2022-07-17T09:08:59;1.63;;;0.85;;
11046;SDS011;5576;50.008;10.596;2022-07-17T09:11:28;1.65;;;0.80;;
11046;SDS011;5576;50.008;10.596;2022-07-17T09:13:55;2.40;;;0.82;;
11046;SDS011;5576;50.008;10.596;2022-07-17T09:16:21;1.33;;;0.90;;
11046;SDS011;5576;50.008;10.596;2022-07-17T09:21:19;0.90;;;0.73;;
11046;SDS011;5576;50.008;10.596;2022-07-17T09:23:56;2.30;;;0.90;;
11046;SDS011;5576;50.008;10.596;2022-07-17T09:26:27;1.73;;;0.90;;
11046;SDS011;5576;50.008;10.596;2022-07-17T09:28:53;1.63;;;0.80;;
11046;SDS011;5576;50.008;10.596;2022-07-17T09:31:27;2.30;;;0.90;;
11046;SDS011;5576;50.008;10.596;2022-07-17T09:33:54;1.95;;;0.80;;
11046;SDS011;5576;50.008;10.596;2022-07-17T09:36:21;2.50;;;0.90;;
11046;SDS011;5576;50.008;10.596;2022-07-17T09:38:48;3.10;;;0.90;;
11046;SDS011;5576;50.008;10.596;2022-07-17T09:41:19;2.28;;;0.80;;
11046;SDS011;5576;50.008;10.596;2022-07-17T09:43:49;2.05;;;0.80;;
11046;SDS011;5576;50.008;10.596;2022-07-17T09:46:20;1.90;;;0.77;;
11046;SDS011;5576;50.008;10.596;2022-07-17T09:48:48;3.05;;;0.90;;
11046;SDS011;5576;50.008;10.596;2022-07-17T09:51:19;1.63;;;0.80;;
11046;SDS011;5576;50.008;10.596;2022-07-17T09:53:55;1.90;;;0.80;;
11046;SDS011;5576;50.008;10.596;2022-07-17T09:56:23;1.48;;;0.82;;
11046;SDS011;5576;50.008;10.596;2022-07-17T09:58:52;1.08;;;0.80;;
11046;SDS011;5576;50.008;10.596;2022-07-17T10:01:20;2.43;;;0.80;;
11046;SDS011;5576;50.008;10.596;2022-07-17T10:03:46;1.67;;;0.80;;
11046;SDS011;5576;50.008;10.596;2022-07-17T10:06:18;1.83;;;0.80;;
11046;SDS011;5576;50.008;10.596;2022-07-17T10:08:46;1.83;;;0.95;;
11046;SDS011;5576;50.008;10.596;2022-07-17T10:11:12;2.22;;;0.80;;
11046;SDS011;5576;50.008;10.596;2022-07-17T10:13:42;1.38;;;0.85;;
11046;SDS011;5576;50.008;10.596;2022-07-17T10:16:10;1.90;;;0.90;;
11046;SDS011;5576;50.008;10.596;2022-07-17T10:18:39;1.75;;;0.85;;
11046;SDS011;5576;50.008;10.596;2022-07-17T10:21:11;1.98;;;0.73;;
11046;SDS011;5576;50.008;10.596;2022-07-17T10:23:40;1.40;;;0.80;;
11046;SDS011;5576;50.008;10.596;2022-07-17T10:26:35;1.60;;;1.02;;
11046;SDS011;5576;50.008;10.596;2022-07-17T10:29:07;1.80;;;0.80;;
11046;SDS011;5576;50.008;10.596;2022-07-17T10:31:34;1.00;;;0.60;;
11046;SDS011;5576;50.008;10.596;2022-07-17T10:34:01;1.50;;;0.73;;
11046;SDS011;5576;50.008;10.596;2022-07-17T10:36:37;1.90;;;0.70;;
11046;SDS011;5576;50.008;10.596;2022-07-17T10:39:20;1.60;;;0.90;;
11046;SDS011;5576;50.008;10.596;2022-07-17T10:42:02;2.63;;;0.90;;
11046;SDS011;5576;50.008;10.596;2022-07-17T10:44:28;1.58;;;0.80;;
11046;SDS011;5576;50.008;10.596;2022-07-17T10:46:57;3.35;;;1.00;;
11046;SDS011;5576;50.008;10.596;2022-07-17T10:49:23;1.98;;;0.75;;
11046;SDS011;5576;50.008;10.596;2022-07-17T10:51:50;1.33;;;0.77;;
11046;SDS011;5576;50.008;10.596;2022-07-17T10:54:16;2.45;;;0.93;;
11046;SDS011;5576;50.008;10.596;2022-07-17T10:56:43;0.73;;;0.70;;
11046;SDS011;5576;50.008;10.596;2022-07-17T10:59:12;1.50;;;0.80;;
11046;SDS011;5576;50.008;10.596;2022-07-17T11:01:38;2.15;;;0.90;;
11046;SDS011;5576;50.008;10.596;2022-07-17T11:04:04;1.55;;;0.70;;
11046;SDS011;5576;50.008;10.596;2022-07-17T11:06:33;1.45;;;1.00;;
11046;SDS011;5576;50.008;10.596;2022-07-17T11:09:01;1.13;;;0.70;;
11046;SDS011;5576;50.008;10.596;2022-07-17T11:14:10;2.00;;;0.85;;
11046;SDS011;5576;50.008;10.596;2022-07-17T11:16:43;0.90;;;0.70;;
11046;SDS011;5576;50.008;10.596;2022-07-17T11:22:04;1.57;;;0.70;;
11046;SDS011;5576;50.008;10.596;2022-07-17T11:24:37;1.67;;;0.80;;
11046;SDS011;5576;50.008;10.596;2022-07-17T11:27:03;1.70;;;0.70;;
11046;SDS011;5576;50.008;10.596;2022-07-17T11:29:29;2.33;;;0.80;;
11046;SDS011;5576;50.008;10.596;2022-07-17T11:31:55;2.13;;;1.05;;
11046;SDS011;5576;50.008;10.596;2022-07-17T11:34:24;0.95;;;0.80;;
11046;SDS011;5576;50.008;10.596;2022-07-17T11:36:50;1.85;;;0.80;;
11046;SDS011;5576;50.008;10.596;2022-07-17T11:39:16;1.70;;;0.80;;
11046;SDS011;5576;50.008;10.596;2022-07-17T11:41:49;1.98;;;1.00;;
11046;SDS011;5576;50.008;10.596;2022-07-17T11:44:18;1.83;;;0.75;;
11046;SDS011;5576;50.008;10.596;2022-07-17T11:46:46;1.10;;;0.80;;
11046;SDS011;5576;50.008;10.596;2022-07-17T11:49:30;1.33;;;0.70;;
11046;SDS011;5576;50.008;10.596;2022-07-17T11:51:58;1.27;;;0.80;;
11046;SDS011;5576;50.008;10.596;2022-07-17T11:54:31;2.03;;;0.70;;
11046;SDS011;5576;50.008;10.596;2022-07-17T11:56:58;1.95;;;0.88;;
11046;SDS011;5576;50.008;10.596;2022-07-17T11:59:25;2.63;;;0.98;;
11046;SDS011;5576;50.008;10.596;2022-07-17T12:01:52;1.23;;;0.80;;
11046;SDS011;5576;50.008;10.596;2022-07-17T12:04:18;1.27;;;0.73;;
11046;SDS011;5576;50.008;10.596;2022-07-17T12:06:45;2.28;;;0.80;;
11046;SDS011;5576;50.008;10.596;2022-07-17T12:09:11;1.25;;;0.90;;
11046;SDS011;5576;50.008;10.596;2022-07-17T12:11:45;1.60;;;0.80;;
11046;SDS011;5576;50.008;10.596;2022-07-17T12:14:12;2.30;;;0.90;;
11046;SDS011;5576;50.008;10.596;2022-07-17T12:16:38;1.20;;;0.70;;
11046;SDS011;5576;50.008;10.596;2022-07-17T12:19:06;2.57;;;0.80;;
11046;SDS011;5576;50.008;10.596;2022-07-17T12:24:24;1.55;;;1.17;;
11046;SDS011;5576;50.008;10.596;2022-07-17T12:26:55;1.60;;;1.03;;
11046;SDS011;5576;50.008;10.596;2022-07-17T12:29:23;0.70;;;0.70;;
11046;SDS011;5576;50.008;10.596;2022-07-17T12:31:59;0.80;;;0.80;;
11046;SDS011;5576;50.008;10.596;2022-07-17T12:34:35;0.80;;;0.65;;
11046;SDS011;5576;50.008;10.596;2022-07-17T12:37:02;1.60;;;0.70;;
11046;SDS011;5576;50.008;10.596;2022-07-17T12:39:28;1.43;;;0.70;;
11046;SDS011;5576;50.008;10.596;2022-07-17T12:41:54;1.67;;;0.70;;
11046;SDS011;5576;50.008;10.596;2022-07-17T12:44:20;1.70;;;0.80;;
11046;SDS011;5576;50.008;10.596;2022-07-17T12:46:45;1.05;;;0.88;;
11046;SDS011;5576;50.008;10.596;2022-07-17T12:49:11;1.77;;;0.88;;
11046;SDS011;5576;50.008;10.596;2022-07-17T12:51:37;1.10;;;0.70;;
11046;SDS011;5576;50.008;10.596;2022-07-17T12:54:02;1.00;;;0.70;;
11046;SDS011;5576;50.008;10.596;2022-07-17T12:56:28;3.00;;;0.90;;
11046;SDS011;5576;50.008;10.596;2022-07-17T12:58:54;1.50;;;0.90;;
11046;SDS011;5576;50.008;10.596;2022-07-17T13:01:19;1.47;;;0.80;;
11046;SDS011;5576;50.008;10.596;2022-07-17T13:03:46;1.63;;;0.75;;
11046;SDS011;5576;50.008;10.596;2022-07-17T13:06:12;2.30;;;0.82;;
11046;SDS011;5576;50.008;10.596;2022-07-17T13:08:38;2.30;;;0.80;;
11046;SDS011;5576;50.008;10.596;2022-07-17T13:11:04;1.10;;;0.70;;
11046;SDS011;5576;50.008;10.596;2022-07-17T13:13:31;2.17;;;0.98;;
11046;SDS011;5576;50.008;10.596;2022-07-17T13:15:57;2.65;;;0.75;;
11046;SDS011;5576;50.008;10.596;2022-07-17T13:18:23;1.10;;;0.80;;
11046;SDS011;5576;50.008;10.596;2022-07-17T13:20:49;0.87;;;0.70;;
11046;SDS011;5576;50.008;10.596;2022-07-17T13:23:15;1.33;;;0.80;;
11046;SDS011;5576;50.008;10.596;2022-07-17T13:25:42;2.40;;;0.70;;
11046;SDS011;5576;50.008;10.596;2022-07-17T13:28:08;0.98;;;0.68;;
11046;SDS011;5576;50.008;10.596;2022-07-17T13:30:35;1.20;;;0.70;;
11046;SDS011;5576;50.008;10.596;2022-07-17T13:33:01;1.53;;;0.60;;
11046;SDS011;5576;50.008;10.596;2022-07-17T13:35:27;1.43;;;0.73;;
11046;SDS011;5576;50.008;10.596;2022-07-17T13:37:53;1.45;;;0.73;;
11046;SDS011;5576;50.008;10.596;2022-07-17T13:40:19;0.83;;;0.70;;
11046;SDS011;5576;50.008;10.596;2022-07-17T13:42:45;1.80;;;0.80;;
11046;SDS011;5576;50.008;10.596;2022-07-17T13:45:11;1.52;;;0.80;;
11046;SDS011;5576;50.008;10.596;2022-07-17T13:47:38;1.27;;;0.80;;
11046;SDS011;5576;50.008;10.596;2022-07-17T13:50:04;1.15;;;0.65;;
11046;SDS011;5576;50.008;10.596;2022-07-17T13:52:30;1.50;;;0.70;;
11046;SDS011;5576;50.008;10.596;2022-07-17T13:54:56;1.20;;;0.80;;
11046;SDS011;5576;50.008;10.596;2022-07-17T13:57:23;0.73;;;0.60;;
11046;SDS011;5576;50.008;10.596;2022-07-17T13:59:49;0.73;;;0.60;;
11046;SDS011;5576;50.008;10.596;2022-07-17T14:02:15;0.90;;;0.70;;
11046;SDS011;5576;50.008;10.596;2022-07-17T14:04:40;1.67;;;0.80;;
11046;SDS011;5576;50.008;10.596;2022-07-17T14:07:06;0.90;;;0.80;;
11046;SDS011;5576;50.008;10.596;2022-07-17T14:09:32;2.20;;;0.90;;
11046;SDS011;5576;50.008;10.596;2022-07-17T14:11:58;0.90;;;0.70;;
11046;SDS011;5576;50.008;10.596;2022-07-17T14:14:24;1.27;;;0.77;;
11046;SDS011;5576;50.008;10.596;2022-07-17T14:16:50;1.10;;;0.63;;
11046;SDS011;5576;50.008;10.596;2022-07-17T14:19:17;1.02;;;0.70;;
11046;SDS011;5576;50.008;10.596;2022-07-17T14:21:43;4.17;;;2.20;;
11046;SDS011;5576;50.008;10.596;2022-07-17T14:24:09;3.10;;;2.25;;
11046;SDS011;5576;50.008;10.596;2022-07-17T14:26:35;2.03;;;1.10;;
11046;SDS011;5576;50.008;10.596;2022-07-17T14:29:02;2.13;;;1.00;;
11046;SDS011;5576;50.008;10.596;2022-07-17T14:31:28;1.73;;;0.80;;
11046;SDS011;5576;50.008;10.596;2022-07-17T14:33:54;1.57;;;1.00;;
11046;SDS011;5576;50.008;10.596;2022-07-17T14:36:20;1.10;;;0.80;;
11046;SDS011;5576;50.008;10.596;2022-07-17T14:38:46;1.93;;;0.90;;
11046;SDS011;5576;50.008;10.596;2022-07-17T14:41:12;1.73;;;0.80;;
11046;SDS011;5576;50.008;10.596;2022-07-17T14:43:38;1.10;;;0.80;;
11046;SDS011;5576;50.008;10.596;2022-07-17T14:46:04;1.20;;;0.90;;
11046;SDS011;5576;50.008;10.596;2022-07-17T14:48:30;1.88;;;0.73;;
11046;SDS011;5576;50.008;10.596;2022-07-17T14:50:56;1.35;;;0.80;;
11046;SDS011;5576;50.008;10.596;2022-07-17T14:53:22;0.95;;;0.65;;
11046;SDS011;5576;50.008;10.596;2022-07-17T14:55:48;1.10;;;0.80;;
11046;SDS011;5576;50.008;10.596;2022-07-17T14:58:13;1.00;;;0.90;;
11046;SDS011;5576;50.008;10.596;2022-07-17T15:00:39;0.85;;;0.75;;
11046;SDS011;5576;50.008;10.596;2022-07-17T15:03:05;1.40;;;0.70;;